Time;durP1;ratioP1;P1;durP2;ratioP2;P2;SDS_P1;SDS_P2;PMS_P1;PMS_P2;Temp;Humidity;BMP_temperature;BMP_pressure;BME280_temperature;BME280_humidity;BME280_pressure;Samples;Min_cycle;Max_cycle;Signal;HPM_P1;HPM_P2
2021/12/13 00:03:33;;;;;;;0.80;0.57;;;17.10;58.40;;;;;;10414477;28;20209;-63
2021/12/13 00:09:00;;;;;;;0.63;0.50;;;17.10;58.30;;;;;;10414935;28;20760;-63
2021/12/13 00:14:27;;;;;;;0.47;0.47;;;17.10;58.30;;;;;;10415985;28;20202;-64
2021/12/13 00:19:52;;;;;;;0.70;0.70;;;17.10;58.30;;;;;;10415252;28;20664;-64
2021/12/13 00:25:18;;;;;;;0.90;0.70;;;17.00;58.30;;;;;;10414077;28;20206;-63
2021/12/13 00:30:53;;;;;;;0.50;0.50;;;17.10;58.40;;;;;;10409592;28;20221;-63
2021/12/13 00:36:18;;;;;;;0.67;0.67;;;17.10;58.30;;;;;;10414319;28;20341;-64
2021/12/13 00:41:45;;;;;;;0.73;0.60;;;17.10;58.40;;;;;;10413917;28;20220;-63
2021/12/13 00:47:16;;;;;;;0.60;0.60;;;17.10;58.40;;;;;;10413924;28;20375;-63
2021/12/13 00:52:42;;;;;;;0.83;0.73;;;17.00;58.40;;;;;;10413549;28;20216;-64
2021/12/13 00:58:09;;;;;;;0.50;0.50;;;17.00;58.40;;;;;;10413290;28;20208;-62
2021/12/13 01:03:43;;;;;;;0.40;0.40;;;17.10;58.40;;;;;;10452449;28;20216;-64
2021/12/13 01:10:08;;;;;;;0.70;0.60;;;17.00;58.40;;;;;;10449485;28;20182;-63
2021/12/13 01:15:37;;;;;;;0.80;0.70;;;17.00;58.30;;;;;;10414000;28;20213;-64
2021/12/13 01:21:13;;;;;;;0.50;0.50;;;17.00;58.50;;;;;;10414118;28;20185;-64
2021/12/13 01:26:39;;;;;;;0.87;0.60;;;17.00;58.40;;;;;;10413722;28;20209;-63
2021/12/13 01:32:09;;;;;;;0.50;0.50;;;17.00;58.40;;;;;;10413377;28;20592;-62
2021/12/13 01:37:34;;;;;;;0.57;0.53;;;17.00;58.40;;;;;;10453391;28;20197;-64
2021/12/13 01:43:02;;;;;;;0.50;0.50;;;17.00;58.50;;;;;;10453183;28;20209;-63
2021/12/13 01:48:28;;;;;;;1.27;0.60;;;17.00;58.50;;;;;;10452561;28;20196;-63
2021/12/13 01:53:55;;;;;;;0.60;0.60;;;17.00;58.50;;;;;;10451767;28;20217;-63
2021/12/13 01:59:44;;;;;;;0.50;0.40;;;17.00;58.40;;;;;;10451643;28;20586;-63
2021/12/13 02:05:09;;;;;;;0.40;0.40;;;17.00;58.50;;;;;;10450273;28;20205;-63
2021/12/13 02:10:36;;;;;;;0.50;0.50;;;17.00;58.50;;;;;;10451917;28;20212;-63
2021/12/13 02:21:47;;;;;;;1.17;0.50;;;17.00;58.50;;;;;;10452127;28;20603;-63
2021/12/13 02:27:11;;;;;;;0.60;0.50;;;17.00;58.60;;;;;;10450644;28;20239;-63
2021/12/13 02:32:36;;;;;;;0.30;0.30;;;17.00;58.60;;;;;;10452000;28;20221;-64
2021/12/13 02:37:59;;;;;;;0.90;0.60;;;17.00;58.60;;;;;;10451608;28;20197;-63
2021/12/13 02:43:27;;;;;;;0.30;0.30;;;17.00;58.60;;;;;;10451512;28;20700;-63
2021/12/13 02:48:52;;;;;;;1.03;0.53;;;17.00;58.60;;;;;;10450801;28;20216;-63
2021/12/13 02:54:18;;;;;;;0.50;0.50;;;17.00;58.60;;;;;;10450451;28;20212;-64
2021/12/13 02:59:47;;;;;;;1.20;0.77;;;17.00;58.70;;;;;;10450851;28;20211;-63
2021/12/13 03:05:14;;;;;;;0.60;0.37;;;17.00;58.70;;;;;;10446473;28;20220;-64
2021/12/13 03:10:43;;;;;;;0.40;0.40;;;17.00;58.70;;;;;;10435174;28;20216;-63
2021/12/13 03:16:21;;;;;;;0.53;0.53;;;17.00;58.60;;;;;;10450565;28;20710;-63
2021/12/13 03:22:03;;;;;;;0.33;0.33;;;17.00;58.60;;;;;;10450786;28;20224;-63
2021/12/13 03:27:38;;;;;;;0.37;0.37;;;17.00;58.70;;;;;;10450090;28;20185;-63
2021/12/13 03:33:04;;;;;;;0.57;0.40;;;17.00;58.70;;;;;;10456218;28;20225;-64
2021/12/13 03:38:29;;;;;;;0.47;0.40;;;17.00;58.70;;;;;;10457117;28;20193;-63
2021/12/13 03:43:56;;;;;;;0.43;0.43;;;17.00;58.70;;;;;;10458059;28;20209;-63
2021/12/13 03:49:21;;;;;;;0.60;0.43;;;17.00;58.80;;;;;;10456226;28;20192;-63
2021/12/13 03:54:44;;;;;;;0.40;0.30;;;17.00;58.80;;;;;;10456333;28;20205;-63
2021/12/13 04:00:08;;;;;;;0.40;0.40;;;17.00;58.70;;;;;;10457716;28;20261;-63
2021/12/13 04:05:32;;;;;;;0.47;0.47;;;17.00;58.70;;;;;;10456713;28;20224;-64
2021/12/13 04:10:57;;;;;;;0.60;0.40;;;17.00;58.80;;;;;;10456303;28;20757;-63
2021/12/13 04:16:33;;;;;;;0.50;0.33;;;17.00;58.80;;;;;;10450732;28;20573;-63
2021/12/13 04:21:59;;;;;;;0.30;0.30;;;17.00;58.80;;;;;;10456945;28;20644;-63
2021/12/13 04:27:25;;;;;;;0.30;0.30;;;17.00;58.80;;;;;;10456898;28;20193;-63
2021/12/13 04:32:50;;;;;;;0.40;0.40;;;17.00;58.80;;;;;;10457070;28;20217;-63
2021/12/13 04:38:17;;;;;;;0.77;0.40;;;17.00;58.80;;;;;;10457108;28;20193;-63
2021/12/13 04:43:39;;;;;;;0.40;0.33;;;17.00;58.80;;;;;;10456585;28;20200;-63
2021/12/13 04:49:06;;;;;;;0.40;0.40;;;17.10;58.70;;;;;;10455815;28;20204;-64
2021/12/13 04:54:33;;;;;;;0.50;0.50;;;17.10;58.60;;;;;;10454379;28;20213;-63
2021/12/13 04:59:59;;;;;;;0.57;0.43;;;17.10;58.50;;;;;;10452517;28;20189;-63
2021/12/13 05:05:21;;;;;;;0.50;0.40;;;17.20;58.50;;;;;;10453693;28;20209;-63
2021/12/13 05:10:48;;;;;;;0.40;0.30;;;17.10;58.50;;;;;;10455123;28;20676;-63
2021/12/13 05:16:12;;;;;;;0.40;0.40;;;17.10;58.50;;;;;;10454453;28;20287;-63
2021/12/13 05:21:38;;;;;;;0.40;0.40;;;17.20;58.60;;;;;;10454304;28;20279;-63
2021/12/13 05:27:07;;;;;;;0.30;0.30;;;17.10;58.60;;;;;;10453280;28;20189;-63
2021/12/13 05:37:41;;;;;;;0.40;0.30;;;17.30;58.40;;;;;;10485252;28;20208;-67
2021/12/13 05:43:20;;;;;;;0.40;0.30;;;17.30;58.40;;;;;;10488648;28;20213;-69
2021/12/13 05:48:47;;;;;;;0.30;0.30;;;17.30;58.40;;;;;;10446995;28;20212;-69
2021/12/13 05:54:13;;;;;;;0.47;0.30;;;17.30;58.40;;;;;;10450495;28;20236;-68
2021/12/13 05:59:40;;;;;;;0.40;0.40;;;17.30;58.50;;;;;;10455330;28;20200;-68
2021/12/13 06:05:07;;;;;;;0.50;0.47;;;17.20;58.40;;;;;;10453853;28;20588;-69
2021/12/13 06:10:39;;;;;;;0.43;0.43;;;17.30;58.40;;;;;;10452215;28;20237;-69
2021/12/13 06:16:04;;;;;;;0.50;0.50;;;17.30;58.40;;;;;;10448190;28;20235;-69
2021/12/13 06:21:38;;;;;;;0.50;0.30;;;17.30;58.50;;;;;;10451261;28;20185;-68
2021/12/13 06:27:12;;;;;;;0.40;0.40;;;17.30;58.50;;;;;;10485632;28;20580;-69
2021/12/13 06:32:39;;;;;;;0.43;0.40;;;17.30;58.50;;;;;;10492492;28;20579;-66
2021/12/13 06:38:44;;;;;;;0.67;0.40;;;17.30;59.00;;;;;;10492260;28;20188;-69
2021/12/13 06:44:15;;;;;;;0.30;0.30;;;17.40;58.40;;;;;;10477706;28;20214;-69
2021/12/13 06:49:41;;;;;;;0.50;0.50;;;17.30;58.40;;;;;;10450812;28;20207;-69
2021/12/13 06:55:08;;;;;;;0.40;0.40;;;17.30;58.40;;;;;;10450385;28;20544;-69
2021/12/13 07:00:37;;;;;;;0.50;0.50;;;17.40;58.50;;;;;;10450506;28;20280;-69
2021/12/13 07:06:02;;;;;;;0.87;0.50;;;17.40;58.40;;;;;;10448824;28;20679;-67
2021/12/13 07:11:26;;;;;;;0.43;0.43;;;17.40;58.30;;;;;;10470468;28;20671;-66
2021/12/13 07:16:52;;;;;;;0.63;0.60;;;17.40;58.50;;;;;;10479785;28;20224;-67
2021/12/13 07:22:20;;;;;;;1.10;0.63;;;17.30;58.60;;;;;;10471921;28;20289;-67
2021/12/13 07:27:48;;;;;;;0.60;0.60;;;17.30;58.80;;;;;;10490397;28;20709;-68
2021/12/13 07:33:12;;;;;;;0.47;0.47;;;17.40;58.90;;;;;;10470212;28;20217;-67
2021/12/13 07:38:47;;;;;;;0.73;0.53;;;17.40;58.80;;;;;;10466592;28;20207;-67
2021/12/13 07:44:15;;;;;;;1.00;0.60;;;17.40;58.60;;;;;;10473775;28;20254;-67
2021/12/13 07:49:40;;;;;;;0.33;0.33;;;17.40;58.70;;;;;;10478825;28;20200;-67
2021/12/13 07:55:14;;;;;;;0.50;0.50;;;17.50;58.80;;;;;;10457110;28;20223;-67
2021/12/13 08:00:41;;;;;;;1.03;0.70;;;17.50;58.80;;;;;;10455767;28;20204;-68
2021/12/13 08:06:07;;;;;;;0.90;0.70;;;17.50;58.90;;;;;;10454680;28;20225;-69
2021/12/13 08:11:43;;;;;;;1.37;1.00;;;17.50;59.00;;;;;;10448709;28;20565;-68
2021/12/13 08:17:15;;;;;;;1.00;0.80;;;17.50;59.00;;;;;;10455022;28;20228;-68
2021/12/13 08:22:45;;;;;;;0.83;0.80;;;17.50;59.10;;;;;;10458601;28;20280;-68
2021/12/13 08:28:11;;;;;;;0.70;0.70;;;17.50;59.10;;;;;;10454341;28;20193;-66
2021/12/13 08:33:37;;;;;;;1.63;0.70;;;17.50;59.00;;;;;;10445733;28;20228;-68
2021/12/13 08:39:06;;;;;;;2.10;0.97;;;17.50;59.00;;;;;;10449632;28;20200;-68
2021/12/13 08:44:32;;;;;;;3.10;1.07;;;17.50;59.00;;;;;;10451532;28;20710;-68
2021/12/13 08:50:03;;;;;;;0.93;0.80;;;17.50;59.00;;;;;;10452388;28;20587;-68
2021/12/13 08:55:28;;;;;;;0.67;0.67;;;17.50;59.10;;;;;;10446817;28;20248;-68
2021/12/13 09:00:55;;;;;;;1.00;0.70;;;17.50;59.00;;;;;;10452450;28;20201;-68
2021/12/13 09:06:31;;;;;;;1.47;1.00;;;17.60;59.00;;;;;;10453409;28;20221;-68
2021/12/13 09:12:03;;;;;;;2.40;0.67;;;17.60;59.00;;;;;;10452597;28;20232;-67
2021/12/13 09:17:31;;;;;;;2.07;0.73;;;17.60;59.10;;;;;;10447349;28;20217;-66
2021/12/13 09:22:57;;;;;;;1.50;0.80;;;17.60;59.20;;;;;;10448895;28;20367;-68
2021/12/13 09:28:22;;;;;;;1.07;0.90;;;17.60;59.30;;;;;;10450198;28;20565;-68
2021/12/13 09:33:47;;;;;;;1.73;0.97;;;17.60;59.40;;;;;;10444619;28;20696;-69
2021/12/13 09:39:17;;;;;;;10.67;1.23;;;17.70;59.40;;;;;;10449974;28;20591;-69
2021/12/13 09:44:45;;;;;;;3.10;1.10;;;17.70;59.40;;;;;;10450838;28;20573;-68
2021/12/13 09:50:11;;;;;;;2.03;0.90;;;17.70;59.50;;;;;;10445020;28;20209;-68
2021/12/13 09:55:41;;;;;;;2.70;1.00;;;17.70;59.50;;;;;;10439381;28;20228;-67
2021/12/13 10:01:07;;;;;;;8.90;1.60;;;17.70;59.60;;;;;;10454797;28;20200;-67
2021/12/13 10:06:34;;;;;;;2.67;0.90;;;17.70;59.60;;;;;;10450126;28;20221;-67
2021/12/13 10:12:01;;;;;;;2.87;1.00;;;17.70;59.60;;;;;;10450740;28;20585;-68
2021/12/13 10:17:41;;;;;;;5.37;1.27;;;17.70;59.70;;;;;;10464856;28;20300;-67
2021/12/13 10:23:04;;;;;;;2.03;1.20;;;17.60;59.60;;;;;;10451359;28;20692;-68
2021/12/13 10:28:32;;;;;;;2.23;0.90;;;17.70;59.70;;;;;;10449370;28;20201;-68
2021/12/13 10:33:59;;;;;;;2.20;1.10;;;17.70;59.70;;;;;;10448292;28;20221;-68
2021/12/13 10:39:28;;;;;;;1.63;0.93;;;17.70;59.70;;;;;;10436014;28;20367;-68
2021/12/13 10:44:53;;;;;;;3.23;0.90;;;17.70;59.70;;;;;;10446750;28;20220;-68
2021/12/13 10:50:20;;;;;;;1.93;1.00;;;17.70;59.80;;;;;;10450857;28;20289;-67
2021/12/13 10:55:46;;;;;;;2.10;0.70;;;17.70;59.80;;;;;;10449695;28;20228;-66
2021/12/13 11:01:13;;;;;;;2.63;0.87;;;17.70;59.70;;;;;;10454611;28;20645;-67
2021/12/13 11:06:36;;;;;;;1.17;0.67;;;17.70;59.70;;;;;;10455469;28;20591;-67
2021/12/13 11:12:04;;;;;;;1.53;0.87;;;17.70;59.80;;;;;;10450691;28;20711;-66
2021/12/13 11:17:29;;;;;;;0.80;0.80;;;17.70;59.80;;;;;;10444754;28;20212;-67
2021/12/13 11:22:52;;;;;;;1.33;0.90;;;17.70;59.80;;;;;;10453315;28;20600;-66
2021/12/13 11:28:17;;;;;;;1.30;1.00;;;17.70;59.80;;;;;;10449988;28;20209;-67
2021/12/13 11:34:15;;;;;;;2.50;1.10;;;17.70;59.80;;;;;;10460495;22;20225;-67
2021/12/13 11:40:01;;;;;;;1.97;1.00;;;17.70;59.80;;;;;;10391436;28;20229;-67
2021/12/13 11:46:14;;;;;;;2.27;0.80;;;17.70;59.70;;;;;;10400650;28;20193;-68
2021/12/13 11:52:06;;;;;;;1.80;1.00;;;17.70;59.70;;;;;;10279291;28;20212;-69
2021/12/13 11:58:03;;;;;;;1.80;0.97;;;17.70;59.80;;;;;;10399357;28;20228;-68
2021/12/13 12:04:17;;;;;;;2.03;1.07;;;17.70;59.80;;;;;;10394294;28;20209;-68
2021/12/13 12:10:14;;;;;;;1.63;1.10;;;17.70;59.70;;;;;;10408229;28;20309;-67
2021/12/13 12:15:40;;;;;;;1.90;0.97;;;17.70;59.60;;;;;;10376676;28;20218;-68
2021/12/13 12:21:34;;;;;;;1.30;0.93;;;17.70;59.70;;;;;;10414678;28;20202;-67
2021/12/13 12:26:59;;;;;;;0.93;0.87;;;17.70;59.70;;;;;;10402737;28;20213;-68
2021/12/13 12:32:27;;;;;;;2.33;0.87;;;17.70;59.80;;;;;;10399804;28;20313;-67
2021/12/13 12:38:22;;;;;;;1.30;0.97;;;17.70;59.70;;;;;;10397053;28;20221;-70
2021/12/13 12:43:53;;;;;;;1.80;0.90;;;17.70;59.60;;;;;;10404674;28;20197;-68
2021/12/13 12:49:22;;;;;;;2.07;1.03;;;17.70;59.70;;;;;;10401967;28;20703;-69
2021/12/13 12:54:45;;;;;;;2.00;0.80;;;17.70;59.70;;;;;;10393255;28;20326;-69
2021/12/13 13:00:08;;;;;;;0.87;0.87;;;17.70;59.70;;;;;;10388707;28;20232;-70
2021/12/13 13:05:32;;;;;;;1.67;1.03;;;17.70;59.60;;;;;;10392612;28;20205;-67
2021/12/13 13:11:20;;;;;;;1.60;0.87;;;17.70;59.60;;;;;;10396651;28;20570;-68
2021/12/13 13:16:44;;;;;;;1.73;1.17;;;17.80;59.80;;;;;;10401131;28;20263;-67
2021/12/13 13:22:10;;;;;;;1.23;0.83;;;17.80;59.70;;;;;;10396553;28;20201;-67
2021/12/13 13:27:33;;;;;;;1.63;1.00;;;17.80;59.60;;;;;;10411435;28;20232;-69
2021/12/13 13:32:55;;;;;;;1.73;0.90;;;17.80;59.70;;;;;;10384500;28;20690;-70
2021/12/13 13:38:19;;;;;;;1.10;1.00;;;17.80;59.80;;;;;;10410706;28;20221;-68
2021/12/13 13:43:42;;;;;;;1.83;1.03;;;17.80;59.90;;;;;;10408401;28;20201;-66
2021/12/13 13:49:05;;;;;;;2.17;1.00;;;17.70;59.90;;;;;;10410806;28;20236;-69
2021/12/13 13:54:30;;;;;;;0.80;0.80;;;17.80;59.90;;;;;;10419838;28;20222;-66
2021/12/13 13:59:54;;;;;;;1.00;0.80;;;17.80;59.90;;;;;;10421663;28;20312;-65
2021/12/13 14:05:17;;;;;;;1.17;0.80;;;17.80;59.80;;;;;;10409855;28;20276;-67
2021/12/13 14:10:41;;;;;;;0.83;0.70;;;17.80;59.80;;;;;;10408899;28;20571;-67
2021/12/13 14:16:11;;;;;;;1.83;0.70;;;17.80;60.40;;;;;;10399975;28;20686;-67
2021/12/13 14:21:36;;;;;;;1.33;0.80;;;17.80;59.80;;;;;;10408209;28;20280;-67
2021/12/13 14:27:19;;;;;;;1.73;1.03;;;17.80;59.80;;;;;;10394044;28;20336;-66
2021/12/13 14:32:41;;;;;;;1.87;0.80;;;17.80;59.70;;;;;;10408548;28;20217;-67
2021/12/13 14:38:07;;;;;;;1.00;0.80;;;17.80;59.80;;;;;;10408309;28;20264;-67
2021/12/13 14:43:34;;;;;;;1.10;1.00;;;17.80;59.80;;;;;;10408628;28;20193;-67
2021/12/13 14:49:06;;;;;;;2.60;1.00;;;17.80;59.90;;;;;;10406860;28;20702;-67
2021/12/13 14:54:30;;;;;;;1.40;0.90;;;17.80;59.80;;;;;;10407677;28;20210;-66
2021/12/13 14:59:57;;;;;;;1.77;0.90;;;17.80;59.90;;;;;;10407091;28;20420;-67
2021/12/13 15:05:24;;;;;;;1.73;1.20;;;17.80;59.90;;;;;;10398485;28;20229;-67
2021/12/13 15:10:51;;;;;;;0.93;0.87;;;17.80;59.90;;;;;;10406050;28;20202;-67
2021/12/13 15:16:15;;;;;;;2.07;1.00;;;17.80;59.90;;;;;;10401264;28;20218;-67
2021/12/13 15:21:43;;;;;;;1.50;1.20;;;17.90;60.00;;;;;;10415906;28;20659;-67
2021/12/13 15:27:08;;;;;;;1.73;1.03;;;17.80;59.90;;;;;;10402566;28;20215;-68
2021/12/13 15:32:32;;;;;;;1.53;0.80;;;17.80;60.50;;;;;;10409794;28;20683;-67
2021/12/13 15:37:57;;;;;;;1.57;1.00;;;17.90;60.00;;;;;;10402251;28;20241;-68
2021/12/13 15:43:25;;;;;;;1.13;0.93;;;17.90;59.90;;;;;;10404069;28;20558;-66
2021/12/13 15:54:34;;;;;;;2.10;1.90;;;17.80;59.90;;;;;;10414883;28;20555;-66
2021/12/13 16:00:01;;;;;;;3.60;1.50;;;17.80;60.00;;;;;;10414888;28;20583;-66
2021/12/13 16:05:27;;;;;;;1.87;1.47;;;17.80;60.00;;;;;;10413204;28;20198;-65
2021/12/13 16:10:49;;;;;;;3.03;1.90;;;17.90;60.00;;;;;;10412337;28;20401;-64
2021/12/13 16:16:18;;;;;;;4.47;1.60;;;18.20;59.60;;;;;;10411111;28;20226;-65
2021/12/13 16:21:42;;;;;;;3.00;1.80;;;18.10;59.80;;;;;;10397981;28;20197;-64
2021/12/13 16:27:09;;;;;;;3.70;1.40;;;18.00;60.10;;;;;;10408545;28;20235;-64
2021/12/13 16:32:32;;;;;;;4.57;1.47;;;17.90;60.20;;;;;;10413223;28;20217;-65
2021/12/13 16:37:58;;;;;;;2.17;1.30;;;17.90;60.30;;;;;;10411949;28;20229;-66
2021/12/13 16:43:20;;;;;;;1.87;1.50;;;17.90;60.50;;;;;;10410176;28;20217;-65
2021/12/13 16:48:45;;;;;;;2.90;1.70;;;17.90;60.50;;;;;;10402109;28;20222;-66
2021/12/13 16:54:12;;;;;;;1.63;1.50;;;17.90;60.50;;;;;;10398452;28;20225;-64
2021/12/13 16:59:35;;;;;;;1.67;1.53;;;17.90;60.60;;;;;;10406561;28;20218;-66
2021/12/13 17:05:01;;;;;;;2.57;1.80;;;17.90;60.60;;;;;;10403639;28;20198;-66
2021/12/13 17:10:33;;;;;;;1.80;1.40;;;17.90;60.70;;;;;;10398328;28;20574;-65
2021/12/13 17:15:57;;;;;;;1.43;1.33;;;17.90;60.70;;;;;;10407855;28;20713;-65
2021/12/13 17:21:23;;;;;;;2.73;1.67;;;17.90;60.70;;;;;;10405674;28;20194;-65
2021/12/13 17:26:48;;;;;;;1.93;1.37;;;17.90;60.70;;;;;;10413105;28;20213;-71
2021/12/13 17:32:13;;;;;;;1.77;1.65;;;17.90;60.70;;;;;;10411167;28;20421;-67
2021/12/13 17:37:40;;;;;;;1.57;1.30;;;18.90;57.70;;;;;;10434651;22;20700;-65
2021/12/13 17:43:16;;;;;;;2.03;1.43;;;18.30;59.30;;;;;;10406181;28;20189;-65
2021/12/13 17:48:41;;;;;;;1.63;1.30;;;18.10;60.00;;;;;;10358563;28;20261;-65
2021/12/13 17:54:06;;;;;;;1.87;1.50;;;18.00;60.30;;;;;;10350390;28;20226;-63
2021/12/13 17:59:33;;;;;;;1.70;1.47;;;18.00;60.40;;;;;;10355746;28;20206;-64
2021/12/13 18:05:06;;;;;;;1.43;1.33;;;18.00;60.50;;;;;;10361433;28;20226;-64
2021/12/13 18:10:30;;;;;;;2.37;1.73;;;18.00;60.60;;;;;;10353775;28;20194;-64
2021/12/13 18:15:54;;;;;;;3.10;1.50;;;18.00;60.70;;;;;;10368808;28;20642;-64
2021/12/13 18:21:17;;;;;;;4.03;2.03;;;18.00;60.70;;;;;;10369139;28;20669;-64
2021/12/13 18:26:42;;;;;;;1.37;1.27;;;17.90;60.70;;;;;;10343857;28;20709;-64
2021/12/13 18:32:10;;;;;;;3.33;1.67;;;17.90;60.80;;;;;;10349577;28;20209;-64
2021/12/13 18:37:38;;;;;;;2.03;1.60;;;18.00;60.80;;;;;;10346745;28;20227;-64
2021/12/13 18:43:06;;;;;;;2.27;1.60;;;18.00;60.90;;;;;;10356166;28;20272;-64
2021/12/13 18:48:31;;;;;;;1.87;1.70;;;18.00;60.90;;;;;;10357057;28;20291;-63
2021/12/13 18:54:01;;;;;;;1.67;1.40;;;18.00;60.90;;;;;;10362740;28;20621;-65
2021/12/13 18:59:31;;;;;;;1.87;1.60;;;18.00;60.90;;;;;;10369386;28;20206;-64
2021/12/13 19:05:00;;;;;;;2.10;1.80;;;18.00;61.00;;;;;;10370342;28;20221;-64
2021/12/13 19:10:33;;;;;;;2.17;1.60;;;18.00;61.00;;;;;;10377208;28;20206;-65
2021/12/13 19:15:58;;;;;;;2.27;2.00;;;18.00;61.00;;;;;;10376385;28;20224;-64
2021/12/13 19:21:25;;;;;;;2.43;2.00;;;18.00;61.00;;;;;;10376233;28;20202;-63
2021/12/13 19:26:50;;;;;;;2.77;1.47;;;18.00;61.10;;;;;;10376548;28;20225;-65
2021/12/13 19:32:14;;;;;;;5.13;1.60;;;18.00;61.10;;;;;;10344342;28;20578;-64
2021/12/13 19:37:42;;;;;;;2.47;1.90;;;18.00;61.00;;;;;;10375548;28;20744;-64
2021/12/13 19:43:08;;;;;;;1.70;1.60;;;18.00;61.00;;;;;;10375522;28;20577;-64
2021/12/13 19:48:33;;;;;;;5.73;1.73;;;18.00;61.10;;;;;;10375365;28;20677;-65
2021/12/13 19:54:01;;;;;;;3.03;2.33;;;18.10;61.20;;;;;;10374176;28;20566;-65
2021/12/13 19:59:26;;;;;;;3.93;2.00;;;18.00;61.20;;;;;;10367555;28;20284;-63
2021/12/13 20:04:56;;;;;;;3.13;1.60;;;18.00;61.20;;;;;;10415449;28;20576;-64
2021/12/13 20:10:25;;;;;;;4.27;2.00;;;18.00;61.30;;;;;;10416078;28;20685;-65
2021/12/13 20:15:57;;;;;;;2.10;1.77;;;18.00;61.30;;;;;;10377460;28;20231;-65
2021/12/13 20:21:25;;;;;;;3.33;1.80;;;18.00;61.50;;;;;;10357538;28;20576;-65
2021/12/13 20:26:54;;;;;;;2.37;2.17;;;17.90;61.80;;;;;;10353746;28;20708;-65
2021/12/13 20:32:21;;;;;;;2.90;1.90;;;17.90;62.00;;;;;;10346749;28;20190;-65
2021/12/13 20:37:48;;;;;;;2.23;2.03;;;17.90;62.00;;;;;;10352596;28;20214;-65
2021/12/13 20:43:16;;;;;;;3.53;2.00;;;17.90;62.00;;;;;;10352764;28;20202;-65
2021/12/13 20:48:41;;;;;;;2.20;2.00;;;17.80;61.90;;;;;;10358660;28;20205;-65
2021/12/13 20:54:05;;;;;;;3.27;1.73;;;17.80;61.90;;;;;;10353910;28;20222;-65
2021/12/13 20:59:30;;;;;;;2.37;1.90;;;17.80;61.90;;;;;;10352899;28;20187;-66
2021/12/13 21:04:55;;;;;;;2.00;1.80;;;17.80;61.80;;;;;;10357549;28;20222;-66
2021/12/13 21:10:23;;;;;;;2.40;2.07;;;17.80;61.80;;;;;;10355217;28;20585;-65
2021/12/13 21:15:53;;;;;;;2.27;1.73;;;17.80;61.80;;;;;;10350510;28;20238;-66
2021/12/13 21:21:20;;;;;;;2.10;1.90;;;17.80;61.70;;;;;;10350894;28;20194;-65
2021/12/13 21:26:47;;;;;;;2.13;1.93;;;17.80;61.70;;;;;;10350111;28;20220;-66
2021/12/13 21:32:13;;;;;;;1.90;1.70;;;17.80;61.70;;;;;;10350364;28;20199;-65
2021/12/13 21:43:19;;;;;;;1.80;1.60;;;17.80;62.00;;;;;;10351360;28;20228;-65
2021/12/13 21:48:45;;;;;;;1.93;1.80;;;17.70;61.60;;;;;;10352095;28;20206;-65
2021/12/13 21:54:11;;;;;;;2.10;1.80;;;17.80;61.70;;;;;;10351254;28;20241;-65
2021/12/13 21:59:36;;;;;;;2.17;1.57;;;17.70;61.80;;;;;;10349421;28;20195;-65
2021/12/13 22:05:04;;;;;;;2.30;1.63;;;17.70;61.80;;;;;;10348381;28;20222;-65
2021/12/13 22:10:30;;;;;;;2.70;1.80;;;17.70;61.90;;;;;;10349634;28;20201;-65
2021/12/13 22:15:56;;;;;;;2.00;1.80;;;17.60;61.90;;;;;;10349424;28;20234;-65
2021/12/13 22:21:23;;;;;;;1.90;1.80;;;17.60;62.00;;;;;;10350618;28;20708;-65
2021/12/13 22:26:48;;;;;;;1.90;1.63;;;17.60;62.00;;;;;;10370521;28;20555;-65
2021/12/13 22:32:13;;;;;;;1.63;1.40;;;17.60;62.00;;;;;;10360097;28;20198;-65
2021/12/13 22:37:40;;;;;;;1.90;1.57;;;17.60;62.10;;;;;;10328492;28;20243;-66
2021/12/13 22:43:08;;;;;;;1.70;1.60;;;17.60;62.10;;;;;;10329030;28;20207;-66
2021/12/13 22:48:30;;;;;;;1.77;1.67;;;17.60;62.10;;;;;;10367186;28;20674;-65
2021/12/13 22:53:55;;;;;;;1.87;1.73;;;17.50;62.00;;;;;;10370106;28;20215;-65
2021/12/13 22:59:24;;;;;;;2.63;1.83;;;17.60;62.10;;;;;;10368636;28;20194;-66
2021/12/13 23:04:52;;;;;;;2.23;1.60;;;17.50;62.00;;;;;;10368872;28;20589;-66
2021/12/13 23:10:22;;;;;;;1.77;1.67;;;17.60;62.00;;;;;;10345843;28;20203;-65
2021/12/13 23:15:49;;;;;;;1.57;1.47;;;17.50;62.00;;;;;;10366352;28;20245;-65
2021/12/13 23:21:13;;;;;;;2.10;1.50;;;17.50;62.00;;;;;;10366702;28;20207;-65
2021/12/13 23:26:38;;;;;;;1.70;1.47;;;17.50;62.00;;;;;;10368486;28;20710;-65
2021/12/13 23:32:04;;;;;;;1.60;1.50;;;17.50;62.00;;;;;;10330168;28;20613;-66
2021/12/13 23:37:28;;;;;;;1.77;1.63;;;17.50;62.00;;;;;;10419085;23;20244;-68
2021/12/13 23:48:34;;;;;;;2.23;1.50;;;17.50;62.00;;;;;;10418330;28;20292;-68
2021/12/13 23:53:56;;;;;;;1.53;1.30;;;17.50;62.00;;;;;;10429900;28;20217;-68
2021/12/13 23:59:20;;;;;;;2.17;1.73;;;17.50;61.90;;;;;;10436923;28;20738;-68
